sensor_id;sensor_type;location;lat;lon;timestamp;temperature;humidity
25640;DHT22;13497;48.322;16.204;2022-08-19T00:01:38;20.00;99.90
25640;DHT22;13497;48.322;16.204;2022-08-19T00:04:06;19.90;99.90
25640;DHT22;13497;48.322;16.204;2022-08-19T00:06:33;19.80;99.90
25640;DHT22;13497;48.322;16.204;2022-08-19T00:08:59;19.80;99.90
25640;DHT22;13497;48.322;16.204;2022-08-19T00:11:27;19.80;99.90
25640;DHT22;13497;48.322;16.204;2022-08-19T00:13:53;19.90;99.90
25640;DHT22;13497;48.322;16.204;2022-08-19T00:16:20;20.00;99.90
25640;DHT22;13497;48.322;16.204;2022-08-19T00:18:46;20.00;99.90
25640;DHT22;13497;48.322;16.204;2022-08-19T00:21:11;20.00;99.90
25640;DHT22;13497;48.322;16.204;2022-08-19T00:23:39;20.00;99.90
25640;DHT22;13497;48.322;16.204;2022-08-19T00:26:06;19.90;99.90
25640;DHT22;13497;48.322;16.204;2022-08-19T00:28:33;19.90;99.90
25640;DHT22;13497;48.322;16.204;2022-08-19T00:31:02;19.80;99.90
25640;DHT22;13497;48.322;16.204;2022-08-19T00:33:28;19.80;99.90
25640;DHT22;13497;48.322;16.204;2022-08-19T00:35:56;19.90;99.90
25640;DHT22;13497;48.322;16.204;2022-08-19T00:38:22;19.90;99.90
25640;DHT22;13497;48.322;16.204;2022-08-19T00:40:49;19.80;99.90
25640;DHT22;13497;48.322;16.204;2022-08-19T00:43:18;19.80;99.90
25640;DHT22;13497;48.322;16.204;2022-08-19T00:45:44;19.80;99.90
25640;DHT22;13497;48.322;16.204;2022-08-19T00:48:10;19.80;99.90
25640;DHT22;13497;48.322;16.204;2022-08-19T00:50:35;19.70;99.90
25640;DHT22;13497;48.322;16.204;2022-08-19T00:53:02;19.70;99.90
25640;DHT22;13497;48.322;16.204;2022-08-19T00:55:29;19.70;99.90
25640;DHT22;13497;48.322;16.204;2022-08-19T00:58:03;19.70;99.90
25640;DHT22;13497;48.322;16.204;2022-08-19T01:00:30;19.70;99.90
25640;DHT22;13497;48.322;16.204;2022-08-19T01:02:56;19.60;99.90
25640;DHT22;13497;48.322;16.204;2022-08-19T01:05:23;19.60;99.90
25640;DHT22;13497;48.322;16.204;2022-08-19T01:07:49;19.60;99.90
25640;DHT22;13497;48.322;16.204;2022-08-19T01:10:17;19.60;99.90
25640;DHT22;13497;48.322;16.204;2022-08-19T01:12:44;19.60;99.90
25640;DHT22;13497;48.322;16.204;2022-08-19T01:15:11;19.60;99.90
25640;DHT22;13497;48.322;16.204;2022-08-19T01:17:38;19.70;99.90
25640;DHT22;13497;48.322;16.204;2022-08-19T01:20:04;19.80;99.90
25640;DHT22;13497;48.322;16.204;2022-08-19T01:22:30;19.80;99.90
25640;DHT22;13497;48.322;16.204;2022-08-19T01:24:57;19.70;99.90
25640;DHT22;13497;48.322;16.204;2022-08-19T01:27:22;19.70;99.90
25640;DHT22;13497;48.322;16.204;2022-08-19T01:29:48;19.60;99.90
25640;DHT22;13497;48.322;16.204;2022-08-19T01:32:15;19.80;99.90
25640;DHT22;13497;48.322;16.204;2022-08-19T01:34:41;19.70;99.90
25640;DHT22;13497;48.322;16.204;2022-08-19T01:37:07;19.70;99.90
25640;DHT22;13497;48.322;16.204;2022-08-19T01:39:33;19.70;99.90
25640;DHT22;13497;48.322;16.204;2022-08-19T01:41:59;19.70;99.90
25640;DHT22;13497;48.322;16.204;2022-08-19T01:44:28;19.60;99.90
25640;DHT22;13497;48.322;16.204;2022-08-19T01:46:54;19.60;99.90
25640;DHT22;13497;48.322;16.204;2022-08-19T01:49:21;19.60;99.90
25640;DHT22;13497;48.322;16.204;2022-08-19T01:51:46;19.60;99.90
25640;DHT22;13497;48.322;16.204;2022-08-19T01:54:14;19.60;99.90
25640;DHT22;13497;48.322;16.204;2022-08-19T01:56:40;19.60;99.90
25640;DHT22;13497;48.322;16.204;2022-08-19T01:59:16;19.50;99.90
25640;DHT22;13497;48.322;16.204;2022-08-19T02:01:42;19.40;99.90
25640;DHT22;13497;48.322;16.204;2022-08-19T02:04:08;19.40;99.90
25640;DHT22;13497;48.322;16.204;2022-08-19T02:06:34;19.40;99.90
25640;DHT22;13497;48.322;16.204;2022-08-19T02:09:00;19.30;99.90
25640;DHT22;13497;48.322;16.204;2022-08-19T02:11:26;19.30;99.90
25640;DHT22;13497;48.322;16.204;2022-08-19T02:13:53;19.20;99.90
25640;DHT22;13497;48.322;16.204;2022-08-19T02:16:19;19.20;99.90
25640;DHT22;13497;48.322;16.204;2022-08-19T02:18:45;19.20;99.90
25640;DHT22;13497;48.322;16.204;2022-08-19T02:21:18;19.10;99.90
25640;DHT22;13497;48.322;16.204;2022-08-19T02:23:44;19.10;99.90
25640;DHT22;13497;48.322;16.204;2022-08-19T02:26:10;19.20;99.90
25640;DHT22;13497;48.322;16.204;2022-08-19T02:28:35;19.20;99.90
25640;DHT22;13497;48.322;16.204;2022-08-19T02:31:02;19.30;99.90
25640;DHT22;13497;48.322;16.204;2022-08-19T02:33:27;19.20;99.90
25640;DHT22;13497;48.322;16.204;2022-08-19T02:35:53;19.20;99.90
25640;DHT22;13497;48.322;16.204;2022-08-19T02:38:18;19.30;99.90
25640;DHT22;13497;48.322;16.204;2022-08-19T02:40:53;19.30;99.90
25640;DHT22;13497;48.322;16.204;2022-08-19T02:43:19;19.40;99.90
25640;DHT22;13497;48.322;16.204;2022-08-19T02:45:45;19.50;99.90
25640;DHT22;13497;48.322;16.204;2022-08-19T02:48:11;19.60;99.90
25640;DHT22;13497;48.322;16.204;2022-08-19T02:50:37;19.70;99.90
25640;DHT22;13497;48.322;16.204;2022-08-19T02:53:04;19.80;99.90
25640;DHT22;13497;48.322;16.204;2022-08-19T02:55:29;19.90;99.90
25640;DHT22;13497;48.322;16.204;2022-08-19T02:57:55;20.00;99.90
25640;DHT22;13497;48.322;16.204;2022-08-19T03:00:22;20.00;99.90
25640;DHT22;13497;48.322;16.204;2022-08-19T03:02:48;20.10;99.90
25640;DHT22;13497;48.322;16.204;2022-08-19T03:05:14;20.20;99.90
25640;DHT22;13497;48.322;16.204;2022-08-19T03:07:39;20.20;99.90
25640;DHT22;13497;48.322;16.204;2022-08-19T03:10:05;20.30;99.90
25640;DHT22;13497;48.322;16.204;2022-08-19T03:12:34;20.50;99.90
25640;DHT22;13497;48.322;16.204;2022-08-19T03:15:00;20.50;99.90
25640;DHT22;13497;48.322;16.204;2022-08-19T03:17:25;20.60;99.90
25640;DHT22;13497;48.322;16.204;2022-08-19T03:19:51;20.60;99.90
25640;DHT22;13497;48.322;16.204;2022-08-19T03:22:16;20.70;99.90
25640;DHT22;13497;48.322;16.204;2022-08-19T03:24:42;20.70;99.90
25640;DHT22;13497;48.322;16.204;2022-08-19T03:27:09;20.70;99.90
25640;DHT22;13497;48.322;16.204;2022-08-19T03:29:36;20.80;99.90
25640;DHT22;13497;48.322;16.204;2022-08-19T03:32:03;20.80;99.90
25640;DHT22;13497;48.322;16.204;2022-08-19T03:34:30;20.80;99.90
25640;DHT22;13497;48.322;16.204;2022-08-19T03:36:57;20.70;99.90
25640;DHT22;13497;48.322;16.204;2022-08-19T03:39:23;20.70;99.90
25640;DHT22;13497;48.322;16.204;2022-08-19T03:41:49;20.70;99.90
25640;DHT22;13497;48.322;16.204;2022-08-19T03:44:16;20.70;99.90
25640;DHT22;13497;48.322;16.204;2022-08-19T03:46:43;20.70;99.90
25640;DHT22;13497;48.322;16.204;2022-08-19T03:49:09;20.70;99.90
25640;DHT22;13497;48.322;16.204;2022-08-19T03:51:35;20.70;99.90
25640;DHT22;13497;48.322;16.204;2022-08-19T03:54:02;20.70;99.90
25640;DHT22;13497;48.322;16.204;2022-08-19T03:56:28;20.70;99.90
25640;DHT22;13497;48.322;16.204;2022-08-19T03:58:56;20.80;99.90
25640;DHT22;13497;48.322;16.204;2022-08-19T04:01:23;20.80;99.90
25640;DHT22;13497;48.322;16.204;2022-08-19T04:03:49;20.90;99.90
25640;DHT22;13497;48.322;16.204;2022-08-19T04:08:44;21.10;99.90
25640;DHT22;13497;48.322;16.204;2022-08-19T04:11:14;21.10;99.90
25640;DHT22;13497;48.322;16.204;2022-08-19T04:13:40;21.10;99.90
25640;DHT22;13497;48.322;16.204;2022-08-19T04:16:07;21.10;99.90
25640;DHT22;13497;48.322;16.204;2022-08-19T04:18:35;21.20;99.90
25640;DHT22;13497;48.322;16.204;2022-08-19T04:21:01;21.30;99.90
25640;DHT22;13497;48.322;16.204;2022-08-19T04:23:27;21.30;99.90
25640;DHT22;13497;48.322;16.204;2022-08-19T04:25:55;21.40;99.90
25640;DHT22;13497;48.322;16.204;2022-08-19T04:28:21;21.50;99.90
25640;DHT22;13497;48.322;16.204;2022-08-19T04:30:48;21.70;99.90
25640;DHT22;13497;48.322;16.204;2022-08-19T04:33:15;21.80;99.90
25640;DHT22;13497;48.322;16.204;2022-08-19T04:35:42;21.90;99.90
25640;DHT22;13497;48.322;16.204;2022-08-19T04:38:08;22.00;99.90
25640;DHT22;13497;48.322;16.204;2022-08-19T04:40:34;22.20;99.90
25640;DHT22;13497;48.322;16.204;2022-08-19T04:43:18;22.30;99.90
25640;DHT22;13497;48.322;16.204;2022-08-19T04:45:44;22.50;99.90
25640;DHT22;13497;48.322;16.204;2022-08-19T04:48:10;22.70;99.90
25640;DHT22;13497;48.322;16.204;2022-08-19T04:50:36;22.80;99.90
25640;DHT22;13497;48.322;16.204;2022-08-19T04:53:04;23.00;99.90
25640;DHT22;13497;48.322;16.204;2022-08-19T04:55:30;23.10;99.90
25640;DHT22;13497;48.322;16.204;2022-08-19T04:57:55;23.20;99.90
25640;DHT22;13497;48.322;16.204;2022-08-19T05:00:21;23.20;99.90
25640;DHT22;13497;48.322;16.204;2022-08-19T05:02:47;23.20;99.90
25640;DHT22;13497;48.322;16.204;2022-08-19T05:05:14;23.20;99.90
25640;DHT22;13497;48.322;16.204;2022-08-19T05:07:40;23.20;99.90
25640;DHT22;13497;48.322;16.204;2022-08-19T05:10:06;23.20;99.90
25640;DHT22;13497;48.322;16.204;2022-08-19T05:12:32;23.10;99.90
25640;DHT22;13497;48.322;16.204;2022-08-19T05:14:58;23.00;99.90
25640;DHT22;13497;48.322;16.204;2022-08-19T05:17:24;23.10;99.90
25640;DHT22;13497;48.322;16.204;2022-08-19T05:19:50;23.10;99.90
25640;DHT22;13497;48.322;16.204;2022-08-19T05:22:34;23.20;99.90
25640;DHT22;13497;48.322;16.204;2022-08-19T05:25:04;23.20;99.90
25640;DHT22;13497;48.322;16.204;2022-08-19T05:27:31;23.30;99.90
25640;DHT22;13497;48.322;16.204;2022-08-19T05:29:56;23.30;99.90
25640;DHT22;13497;48.322;16.204;2022-08-19T05:32:22;23.10;99.90
25640;DHT22;13497;48.322;16.204;2022-08-19T05:34:48;22.90;99.90
25640;DHT22;13497;48.322;16.204;2022-08-19T05:37:14;22.70;99.90
25640;DHT22;13497;48.322;16.204;2022-08-19T05:39:39;22.60;99.90
25640;DHT22;13497;48.322;16.204;2022-08-19T05:42:07;22.40;99.90
25640;DHT22;13497;48.322;16.204;2022-08-19T05:44:34;22.30;99.90
25640;DHT22;13497;48.322;16.204;2022-08-19T05:47:02;22.20;99.90
25640;DHT22;13497;48.322;16.204;2022-08-19T05:49:28;22.00;99.90
25640;DHT22;13497;48.322;16.204;2022-08-19T05:51:54;22.00;99.90
25640;DHT22;13497;48.322;16.204;2022-08-19T05:54:21;22.20;99.90
25640;DHT22;13497;48.322;16.204;2022-08-19T05:56:48;22.30;99.90
25640;DHT22;13497;48.322;16.204;2022-08-19T05:59:14;22.60;99.90
25640;DHT22;13497;48.322;16.204;2022-08-19T06:01:41;22.90;99.90
25640;DHT22;13497;48.322;16.204;2022-08-19T06:04:07;23.30;99.90
25640;DHT22;13497;48.322;16.204;2022-08-19T06:06:34;23.70;99.90
25640;DHT22;13497;48.322;16.204;2022-08-19T06:09:03;24.10;99.90
25640;DHT22;13497;48.322;16.204;2022-08-19T06:11:36;24.50;99.90
25640;DHT22;13497;48.322;16.204;2022-08-19T06:14:05;24.50;99.90
25640;DHT22;13497;48.322;16.204;2022-08-19T06:16:33;24.30;99.90
25640;DHT22;13497;48.322;16.204;2022-08-19T06:19:01;24.20;99.90
25640;DHT22;13497;48.322;16.204;2022-08-19T06:21:28;24.00;99.90
25640;DHT22;13497;48.322;16.204;2022-08-19T06:23:54;23.90;99.90
25640;DHT22;13497;48.322;16.204;2022-08-19T06:26:20;23.80;99.90
25640;DHT22;13497;48.322;16.204;2022-08-19T06:28:47;23.90;99.90
25640;DHT22;13497;48.322;16.204;2022-08-19T06:31:17;23.80;99.90
25640;DHT22;13497;48.322;16.204;2022-08-19T06:33:43;23.80;99.90
25640;DHT22;13497;48.322;16.204;2022-08-19T06:36:25;23.70;99.90
25640;DHT22;13497;48.322;16.204;2022-08-19T06:38:59;23.80;99.90
25640;DHT22;13497;48.322;16.204;2022-08-19T06:41:25;23.80;99.90
25640;DHT22;13497;48.322;16.204;2022-08-19T06:43:51;24.00;99.90
25640;DHT22;13497;48.322;16.204;2022-08-19T06:46:17;24.10;99.90
25640;DHT22;13497;48.322;16.204;2022-08-19T06:48:46;24.20;99.90
25640;DHT22;13497;48.322;16.204;2022-08-19T06:51:13;24.10;99.90
25640;DHT22;13497;48.322;16.204;2022-08-19T06:53:41;24.10;99.90
25640;DHT22;13497;48.322;16.204;2022-08-19T06:56:06;24.10;99.90
25640;DHT22;13497;48.322;16.204;2022-08-19T06:58:32;24.10;99.90
25640;DHT22;13497;48.322;16.204;2022-08-19T07:00:58;24.30;99.90
25640;DHT22;13497;48.322;16.204;2022-08-19T07:03:28;24.50;99.90
25640;DHT22;13497;48.322;16.204;2022-08-19T07:05:54;24.80;99.90
25640;DHT22;13497;48.322;16.204;2022-08-19T07:08:19;25.00;99.90
25640;DHT22;13497;48.322;16.204;2022-08-19T07:10:45;25.20;99.90
25640;DHT22;13497;48.322;16.204;2022-08-19T07:13:11;25.40;99.90
25640;DHT22;13497;48.322;16.204;2022-08-19T07:15:37;25.50;99.90
25640;DHT22;13497;48.322;16.204;2022-08-19T07:18:02;25.70;99.90
25640;DHT22;13497;48.322;16.204;2022-08-19T07:20:28;25.70;99.70
25640;DHT22;13497;48.322;16.204;2022-08-19T07:22:53;25.80;99.70
25640;DHT22;13497;48.322;16.204;2022-08-19T07:25:19;25.90;99.50
25640;DHT22;13497;48.322;16.204;2022-08-19T07:27:48;25.90;99.30
25640;DHT22;13497;48.322;16.204;2022-08-19T07:30:13;26.00;98.90
25640;DHT22;13497;48.322;16.204;2022-08-19T07:32:39;26.20;98.80
25640;DHT22;13497;48.322;16.204;2022-08-19T07:35:05;26.40;98.60
25640;DHT22;13497;48.322;16.204;2022-08-19T07:37:31;26.30;98.30
25640;DHT22;13497;48.322;16.204;2022-08-19T07:39:57;26.20;98.30
25640;DHT22;13497;48.322;16.204;2022-08-19T07:42:22;26.10;98.40
25640;DHT22;13497;48.322;16.204;2022-08-19T07:44:48;26.10;98.50
25640;DHT22;13497;48.322;16.204;2022-08-19T07:47:13;26.10;98.40
25640;DHT22;13497;48.322;16.204;2022-08-19T07:49:40;26.20;98.50
25640;DHT22;13497;48.322;16.204;2022-08-19T07:52:07;26.30;98.20
25640;DHT22;13497;48.322;16.204;2022-08-19T07:54:34;26.20;98.50
25640;DHT22;13497;48.322;16.204;2022-08-19T07:57:00;26.30;98.50
25640;DHT22;13497;48.322;16.204;2022-08-19T07:59:26;26.30;98.30
25640;DHT22;13497;48.322;16.204;2022-08-19T08:01:53;26.60;98.20
25640;DHT22;13497;48.322;16.204;2022-08-19T08:04:19;26.70;98.10
25640;DHT22;13497;48.322;16.204;2022-08-19T08:07:04;26.70;97.90
25640;DHT22;13497;48.322;16.204;2022-08-19T08:09:49;26.50;98.20
25640;DHT22;13497;48.322;16.204;2022-08-19T08:12:16;26.50;98.10
25640;DHT22;13497;48.322;16.204;2022-08-19T08:14:44;26.50;98.30
25640;DHT22;13497;48.322;16.204;2022-08-19T08:17:11;26.50;98.40
25640;DHT22;13497;48.322;16.204;2022-08-19T08:19:37;26.50;98.20
25640;DHT22;13497;48.322;16.204;2022-08-19T08:22:04;26.60;98.30
25640;DHT22;13497;48.322;16.204;2022-08-19T08:24:31;26.90;98.00
25640;DHT22;13497;48.322;16.204;2022-08-19T08:26:58;27.00;97.60
25640;DHT22;13497;48.322;16.204;2022-08-19T08:29:24;27.10;97.40
25640;DHT22;13497;48.322;16.204;2022-08-19T08:31:51;27.20;97.20
25640;DHT22;13497;48.322;16.204;2022-08-19T08:34:16;27.20;96.70
25640;DHT22;13497;48.322;16.204;2022-08-19T08:36:43;27.30;96.40
25640;DHT22;13497;48.322;16.204;2022-08-19T08:39:10;27.20;96.20
25640;DHT22;13497;48.322;16.204;2022-08-19T08:41:53;27.20;96.40
25640;DHT22;13497;48.322;16.204;2022-08-19T08:47:03;27.40;96.60
25640;DHT22;13497;48.322;16.204;2022-08-19T08:49:45;27.60;96.10
25640;DHT22;13497;48.322;16.204;2022-08-19T08:52:29;27.70;95.90
25640;DHT22;13497;48.322;16.204;2022-08-19T08:54:57;27.80;95.70
25640;DHT22;13497;48.322;16.204;2022-08-19T08:57:26;27.70;95.50
25640;DHT22;13497;48.322;16.204;2022-08-19T08:59:53;27.70;95.90
25640;DHT22;13497;48.322;16.204;2022-08-19T09:02:19;27.70;95.90
25640;DHT22;13497;48.322;16.204;2022-08-19T09:04:45;27.60;95.90
25640;DHT22;13497;48.322;16.204;2022-08-19T09:07:34;27.50;95.70
25640;DHT22;13497;48.322;16.204;2022-08-19T09:10:09;27.50;96.10
25640;DHT22;13497;48.322;16.204;2022-08-19T09:15:18;27.70;96.10
25640;DHT22;13497;48.322;16.204;2022-08-19T09:17:48;27.80;95.70
25640;DHT22;13497;48.322;16.204;2022-08-19T09:22:40;28.20;95.30
25640;DHT22;13497;48.322;16.204;2022-08-19T09:25:07;28.40;94.90
25640;DHT22;13497;48.322;16.204;2022-08-19T09:27:32;28.50;94.10
25640;DHT22;13497;48.322;16.204;2022-08-19T09:29:58;28.50;94.60
25640;DHT22;13497;48.322;16.204;2022-08-19T09:32:23;28.50;94.70
25640;DHT22;13497;48.322;16.204;2022-08-19T09:34:50;28.50;94.20
25640;DHT22;13497;48.322;16.204;2022-08-19T09:37:18;28.60;94.00
25640;DHT22;13497;48.322;16.204;2022-08-19T09:39:44;28.70;94.00
25640;DHT22;13497;48.322;16.204;2022-08-19T09:42:09;28.90;94.20
25640;DHT22;13497;48.322;16.204;2022-08-19T09:44:40;28.90;94.10
25640;DHT22;13497;48.322;16.204;2022-08-19T09:47:07;29.10;94.10
25640;DHT22;13497;48.322;16.204;2022-08-19T09:49:33;29.20;93.90
25640;DHT22;13497;48.322;16.204;2022-08-19T09:51:59;29.50;94.20
25640;DHT22;13497;48.322;16.204;2022-08-19T09:54:24;29.40;94.20
25640;DHT22;13497;48.322;16.204;2022-08-19T09:56:51;29.30;94.60
25640;DHT22;13497;48.322;16.204;2022-08-19T09:59:16;29.30;94.40
25640;DHT22;13497;48.322;16.204;2022-08-19T10:01:42;29.60;93.80
25640;DHT22;13497;48.322;16.204;2022-08-19T10:04:07;29.90;93.30
25640;DHT22;13497;48.322;16.204;2022-08-19T10:06:37;29.70;93.60
25640;DHT22;13497;48.322;16.204;2022-08-19T10:09:04;29.80;93.50
25640;DHT22;13497;48.322;16.204;2022-08-19T10:11:32;29.70;93.40
25640;DHT22;13497;48.322;16.204;2022-08-19T10:13:57;29.60;93.20
25640;DHT22;13497;48.322;16.204;2022-08-19T10:16:24;29.50;93.10
25640;DHT22;13497;48.322;16.204;2022-08-19T10:18:50;29.60;92.70
25640;DHT22;13497;48.322;16.204;2022-08-19T10:21:20;29.70;92.80
25640;DHT22;13497;48.322;16.204;2022-08-19T10:23:48;30.00;92.70
25640;DHT22;13497;48.322;16.204;2022-08-19T10:26:21;30.10;92.50
25640;DHT22;13497;48.322;16.204;2022-08-19T10:28:47;29.80;92.50
25640;DHT22;13497;48.322;16.204;2022-08-19T10:31:17;29.60;92.70
25640;DHT22;13497;48.322;16.204;2022-08-19T10:33:45;29.60;93.10
25640;DHT22;13497;48.322;16.204;2022-08-19T10:36:12;29.60;93.60
25640;DHT22;13497;48.322;16.204;2022-08-19T10:38:40;29.60;93.70
25640;DHT22;13497;48.322;16.204;2022-08-19T10:41:16;29.40;94.10
25640;DHT22;13497;48.322;16.204;2022-08-19T10:43:42;29.50;93.50
25640;DHT22;13497;48.322;16.204;2022-08-19T10:46:11;29.70;93.10
25640;DHT22;13497;48.322;16.204;2022-08-19T10:48:37;29.70;92.70
25640;DHT22;13497;48.322;16.204;2022-08-19T10:51:03;29.80;92.60
25640;DHT22;13497;48.322;16.204;2022-08-19T10:53:47;29.80;92.70
25640;DHT22;13497;48.322;16.204;2022-08-19T10:56:13;29.30;92.90
25640;DHT22;13497;48.322;16.204;2022-08-19T10:58:57;29.00;93.10
25640;DHT22;13497;48.322;16.204;2022-08-19T11:01:24;28.80;93.60
25640;DHT22;13497;48.322;16.204;2022-08-19T11:03:49;28.60;93.60
25640;DHT22;13497;48.322;16.204;2022-08-19T11:06:15;28.40;93.90
25640;DHT22;13497;48.322;16.204;2022-08-19T11:08:40;28.30;94.70
25640;DHT22;13497;48.322;16.204;2022-08-19T11:11:10;27.90;96.30
25640;DHT22;13497;48.322;16.204;2022-08-19T11:13:37;27.50;97.60
25640;DHT22;13497;48.322;16.204;2022-08-19T11:18:28;27.10;97.80
25640;DHT22;13497;48.322;16.204;2022-08-19T11:20:54;27.30;97.90
25640;DHT22;13497;48.322;16.204;2022-08-19T11:23:19;27.50;96.50
25640;DHT22;13497;48.322;16.204;2022-08-19T11:25:45;27.70;96.30
25640;DHT22;13497;48.322;16.204;2022-08-19T11:28:11;27.80;96.50
25640;DHT22;13497;48.322;16.204;2022-08-19T11:30:37;28.10;96.30
25640;DHT22;13497;48.322;16.204;2022-08-19T11:33:03;28.20;95.50
25640;DHT22;13497;48.322;16.204;2022-08-19T11:35:28;28.10;95.00
25640;DHT22;13497;48.322;16.204;2022-08-19T11:37:54;28.00;95.20
25640;DHT22;13497;48.322;16.204;2022-08-19T11:40:21;28.00;94.80
25640;DHT22;13497;48.322;16.204;2022-08-19T11:42:46;28.00;94.80
25640;DHT22;13497;48.322;16.204;2022-08-19T11:45:25;28.10;94.60
25640;DHT22;13497;48.322;16.204;2022-08-19T11:47:51;28.40;94.50
25640;DHT22;13497;48.322;16.204;2022-08-19T11:50:17;28.60;94.00
25640;DHT22;13497;48.322;16.204;2022-08-19T11:52:43;28.90;93.70
25640;DHT22;13497;48.322;16.204;2022-08-19T11:55:10;28.90;93.60
25640;DHT22;13497;48.322;16.204;2022-08-19T11:57:36;29.10;93.00
25640;DHT22;13497;48.322;16.204;2022-08-19T12:00:02;29.30;92.70
25640;DHT22;13497;48.322;16.204;2022-08-19T12:02:29;29.60;92.60
25640;DHT22;13497;48.322;16.204;2022-08-19T12:04:54;30.10;92.00
25640;DHT22;13497;48.322;16.204;2022-08-19T12:07:20;30.30;91.40
25640;DHT22;13497;48.322;16.204;2022-08-19T12:09:46;30.70;91.20
25640;DHT22;13497;48.322;16.204;2022-08-19T12:12:12;31.10;90.30
25640;DHT22;13497;48.322;16.204;2022-08-19T12:14:38;31.40;89.50
25640;DHT22;13497;48.322;16.204;2022-08-19T12:17:04;31.70;88.00
25640;DHT22;13497;48.322;16.204;2022-08-19T12:19:32;31.50;86.00
25640;DHT22;13497;48.322;16.204;2022-08-19T12:21:58;31.30;87.10
25640;DHT22;13497;48.322;16.204;2022-08-19T12:24:25;31.10;86.30
25640;DHT22;13497;48.322;16.204;2022-08-19T12:26:50;31.00;85.60
25640;DHT22;13497;48.322;16.204;2022-08-19T12:29:16;30.90;85.40
25640;DHT22;13497;48.322;16.204;2022-08-19T12:31:41;30.80;84.10
25640;DHT22;13497;48.322;16.204;2022-08-19T12:34:07;30.70;85.00
25640;DHT22;13497;48.322;16.204;2022-08-19T12:36:32;31.10;83.40
25640;DHT22;13497;48.322;16.204;2022-08-19T12:38:58;31.40;82.00
25640;DHT22;13497;48.322;16.204;2022-08-19T12:41:25;31.40;80.40
25640;DHT22;13497;48.322;16.204;2022-08-19T12:43:50;31.50;80.30
25640;DHT22;13497;48.322;16.204;2022-08-19T12:46:17;31.50;80.50
25640;DHT22;13497;48.322;16.204;2022-08-19T12:48:42;31.60;79.80
25640;DHT22;13497;48.322;16.204;2022-08-19T12:51:11;31.80;79.30
25640;DHT22;13497;48.322;16.204;2022-08-19T12:53:37;31.90;78.80
25640;DHT22;13497;48.322;16.204;2022-08-19T12:56:03;31.60;79.20
25640;DHT22;13497;48.322;16.204;2022-08-19T12:58:29;31.40;79.90
25640;DHT22;13497;48.322;16.204;2022-08-19T13:00:54;30.90;80.40
25640;DHT22;13497;48.322;16.204;2022-08-19T13:03:20;30.80;81.30
25640;DHT22;13497;48.322;16.204;2022-08-19T13:05:47;30.70;81.50
25640;DHT22;13497;48.322;16.204;2022-08-19T13:08:15;30.30;81.90
25640;DHT22;13497;48.322;16.204;2022-08-19T13:10:42;30.00;83.10
25640;DHT22;13497;48.322;16.204;2022-08-19T13:13:08;29.90;84.00
25640;DHT22;13497;48.322;16.204;2022-08-19T13:15:35;29.70;84.40
25640;DHT22;13497;48.322;16.204;2022-08-19T13:18:01;29.70;85.40
25640;DHT22;13497;48.322;16.204;2022-08-19T13:20:27;29.60;85.20
25640;DHT22;13497;48.322;16.204;2022-08-19T13:22:53;29.60;85.50
25640;DHT22;13497;48.322;16.204;2022-08-19T13:25:19;29.40;86.20
25640;DHT22;13497;48.322;16.204;2022-08-19T13:27:45;29.20;87.90
25640;DHT22;13497;48.322;16.204;2022-08-19T13:30:11;28.90;89.50
25640;DHT22;13497;48.322;16.204;2022-08-19T13:32:56;28.60;89.40
25640;DHT22;13497;48.322;16.204;2022-08-19T13:35:37;28.40;89.00
25640;DHT22;13497;48.322;16.204;2022-08-19T13:38:06;28.50;89.60
25640;DHT22;13497;48.322;16.204;2022-08-19T13:40:32;28.40;89.90
25640;DHT22;13497;48.322;16.204;2022-08-19T13:42:59;28.50;88.20
25640;DHT22;13497;48.322;16.204;2022-08-19T13:45:26;28.50;88.40
25640;DHT22;13497;48.322;16.204;2022-08-19T13:47:53;28.50;88.60
25640;DHT22;13497;48.322;16.204;2022-08-19T13:50:21;28.50;88.10
25640;DHT22;13497;48.322;16.204;2022-08-19T13:52:47;28.60;89.60
25640;DHT22;13497;48.322;16.204;2022-08-19T13:55:14;28.50;90.40
25640;DHT22;13497;48.322;16.204;2022-08-19T13:57:40;28.60;90.00
25640;DHT22;13497;48.322;16.204;2022-08-19T14:00:14;28.60;89.90
25640;DHT22;13497;48.322;16.204;2022-08-19T14:02:40;28.70;89.70
25640;DHT22;13497;48.322;16.204;2022-08-19T14:05:07;28.60;89.10
25640;DHT22;13497;48.322;16.204;2022-08-19T14:07:33;28.60;88.20
25640;DHT22;13497;48.322;16.204;2022-08-19T14:09:58;28.60;88.20
25640;DHT22;13497;48.322;16.204;2022-08-19T14:12:24;28.50;88.40
25640;DHT22;13497;48.322;16.204;2022-08-19T14:14:49;28.50;88.70
25640;DHT22;13497;48.322;16.204;2022-08-19T14:17:15;28.50;88.70
25640;DHT22;13497;48.322;16.204;2022-08-19T14:19:41;28.50;88.80
25640;DHT22;13497;48.322;16.204;2022-08-19T14:22:07;28.50;88.80
25640;DHT22;13497;48.322;16.204;2022-08-19T14:24:32;28.60;88.50
25640;DHT22;13497;48.322;16.204;2022-08-19T14:26:58;28.60;88.90
25640;DHT22;13497;48.322;16.204;2022-08-19T14:29:24;28.80;88.80
25640;DHT22;13497;48.322;16.204;2022-08-19T14:31:50;29.20;88.10
25640;DHT22;13497;48.322;16.204;2022-08-19T14:34:15;29.70;87.20
25640;DHT22;13497;48.322;16.204;2022-08-19T14:36:41;30.20;86.50
25640;DHT22;13497;48.322;16.204;2022-08-19T14:39:07;30.40;84.60
25640;DHT22;13497;48.322;16.204;2022-08-19T14:41:32;30.20;84.80
25640;DHT22;13497;48.322;16.204;2022-08-19T14:43:58;30.10;84.40
25640;DHT22;13497;48.322;16.204;2022-08-19T14:46:26;30.10;84.20
25640;DHT22;13497;48.322;16.204;2022-08-19T14:48:52;29.90;83.20
25640;DHT22;13497;48.322;16.204;2022-08-19T14:51:18;29.90;81.60
25640;DHT22;13497;48.322;16.204;2022-08-19T14:53:44;29.60;81.50
25640;DHT22;13497;48.322;16.204;2022-08-19T14:56:11;29.60;81.80
25640;DHT22;13497;48.322;16.204;2022-08-19T14:58:38;29.60;81.50
25640;DHT22;13497;48.322;16.204;2022-08-19T15:01:05;29.70;81.70
25640;DHT22;13497;48.322;16.204;2022-08-19T15:03:30;29.90;80.00
25640;DHT22;13497;48.322;16.204;2022-08-19T15:05:57;29.80;78.90
25640;DHT22;13497;48.322;16.204;2022-08-19T15:08:23;29.90;78.20
25640;DHT22;13497;48.322;16.204;2022-08-19T15:10:50;30.00;78.10
25640;DHT22;13497;48.322;16.204;2022-08-19T15:13:16;30.10;78.30
25640;DHT22;13497;48.322;16.204;2022-08-19T15:15:41;29.90;79.00
25640;DHT22;13497;48.322;16.204;2022-08-19T15:18:07;30.00;78.70
25640;DHT22;13497;48.322;16.204;2022-08-19T15:20:34;29.90;77.30
25640;DHT22;13497;48.322;16.204;2022-08-19T15:23:00;29.70;78.10
25640;DHT22;13497;48.322;16.204;2022-08-19T15:25:25;29.80;79.00
25640;DHT22;13497;48.322;16.204;2022-08-19T15:27:52;29.80;79.10